Time,TemperatureF,DewpointF,PressureIn,WindDirection,WindDirectionDegrees,WindSpeedMPH,WindSpeedGustMPH,Humidity,HourlyPrecipIn,Conditions,Clouds,dailyrainin,SoftwareType,DateUTC
2017-11-20 00:04:00,35.4,20.0,30.03,WSW,256,5.0,7.3,53,0.00,,CLR,0.00,VWS V13.01,2017-11-20 05:04:00,
2017-11-20 00:19:00,35.1,19.7,30.06,West,272,0.0,3.4,53,0.00,,CLR,0.00,VWS V13.01,2017-11-20 05:19:00,
2017-11-20 00:24:00,34.9,19.5,30.06,WSW,240,6.7,9.5,53,0.00,,CLR,0.00,VWS V13.01,2017-11-20 05:24:00,
2017-11-20 00:39:00,34.9,19.5,30.06,West,265,6.7,9.5,53,0.00,,CLR,0.00,VWS V13.01,2017-11-20 05:39:00,
2017-11-20 00:44:00,34.9,19.5,30.06,WSW,257,2.8,4.5,53,0.00,,CLR,0.00,VWS V13.01,2017-11-20 05:44:00,
2017-11-20 00:54:00,34.5,19.2,30.06,South,186,0.0,4.5,53,0.00,,CLR,0.00,VWS V13.01,2017-11-20 05:54:00,
2017-11-20 00:59:00,34.3,19.0,30.06,South,186,0.0,0.0,53,0.00,,CLR,0.00,VWS V13.01,2017-11-20 05:59:00,
2017-11-20 01:04:00,34.0,18.7,30.06,South,186,0.0,0.0,53,0.00,,CLR,0.00,VWS V13.01,2017-11-20 06:04:00,
2017-11-20 01:09:00,33.8,18.5,30.06,South,186,0.0,0.0,53,0.00,,CLR,0.00,VWS V13.01,2017-11-20 06:09:00,
2017-11-20 01:14:00,33.6,18.8,30.06,SSE,162,0.0,0.0,54,0.00,,CLR,0.00,VWS V13.01,2017-11-20 06:14:00,
2017-11-20 01:19:00,33.6,18.8,30.06,SSE,162,0.0,0.0,54,0.00,,CLR,0.00,VWS V13.01,2017-11-20 06:19:00,
2017-11-20 01:29:00,33.4,18.6,30.06,SSE,162,0.0,0.0,54,0.00,,CLR,0.00,VWS V13.01,2017-11-20 06:29:00,
2017-11-20 01:34:00,33.4,18.6,30.06,SSE,162,0.0,0.0,54,0.00,,CLR,0.00,VWS V13.01,2017-11-20 06:34:00,
2017-11-20 01:39:00,33.1,18.3,30.06,SSE,162,0.0,0.0,54,0.00,,CLR,0.00,VWS V13.01,2017-11-20 06:39:00,
2017-11-20 01:44:00,32.7,17.9,30.06,East,86,0.0,0.0,54,0.00,,CLR,0.00,VWS V13.01,2017-11-20 06:44:00,
2017-11-20 01:49:00,32.4,17.6,30.06,East,86,0.0,0.0,54,0.00,,CLR,0.00,VWS V13.01,2017-11-20 06:49:00,
2017-11-20 01:54:00,32.2,17.4,30.06,East,86,0.0,0.0,54,0.00,,CLR,0.00,VWS V13.01,2017-11-20 06:54:00,
2017-11-20 01:59:00,31.8,17.1,30.09,East,86,0.0,0.0,54,0.00,,CLR,0.00,VWS V13.01,2017-11-20 06:59:00,
2017-11-20 02:04:00,31.6,16.9,30.09,East,86,0.0,3.4,54,0.00,,CLR,0.00,VWS V13.01,2017-11-20 07:04:00,
2017-11-20 02:09:00,31.5,16.8,30.09,East,86,0.0,0.0,54,0.00,,CLR,0.00,VWS V13.01,2017-11-20 07:09:00,
2017-11-20 02:14:00,31.3,16.6,30.09,East,86,0.0,0.0,54,0.00,,CLR,0.00,VWS V13.01,2017-11-20 07:14:00,
2017-11-20 02:19:00,31.3,16.6,30.09,East,86,0.0,0.0,54,0.00,,CLR,0.00,VWS V13.01,2017-11-20 07:19:00,
2017-11-20 02:24:00,31.6,16.9,30.09,East,86,0.0,0.0,54,0.00,,CLR,0.00,VWS V13.01,2017-11-20 07:24:00,
2017-11-20 02:29:00,31.8,17.1,30.09,East,86,0.0,2.8,54,0.00,,CLR,0.00,VWS V13.01,2017-11-20 07:29:00,
2017-11-20 02:44:00,31.6,16.9,30.09,ESE,120,3.9,3.9,54,0.00,,CLR,0.00,VWS V13.01,2017-11-20 07:44:00,
2017-11-20 02:49:00,32.0,17.2,30.09,ESE,120,0.0,0.0,54,0.00,,CLR,0.00,VWS V13.01,2017-11-20 07:49:00,
2017-11-20 02:54:00,32.0,17.2,30.12,ESE,120,0.0,3.4,54,0.00,,CLR,0.00,VWS V13.01,2017-11-20 07:54:00,
2017-11-20 02:59:00,31.8,17.1,30.12,ESE,120,0.0,4.5,54,0.00,,CLR,0.00,VWS V13.01,2017-11-20 07:59:00,
2017-11-20 03:04:00,32.0,17.2,30.12,ESE,119,0.0,2.8,54,0.00,,CLR,0.00,VWS V13.01,2017-11-20 08:04:00,
2017-11-20 03:09:00,31.6,16.9,30.09,ESE,120,0.0,0.0,54,0.00,,CLR,0.00,VWS V13.01,2017-11-20 08:09:00,
2017-11-20 03:14:00,31.5,16.8,30.09,ESE,120,2.8,3.9,54,0.00,,CLR,0.00,VWS V13.01,2017-11-20 08:14:00,
2017-11-20 03:29:00,30.9,16.2,30.09,ESE,120,0.0,0.0,54,0.00,,CLR,0.00,VWS V13.01,2017-11-20 08:29:00,
2017-11-20 03:34:00,30.6,15.9,30.09,ESE,120,0.0,0.0,54,0.00,,CLR,0.00,VWS V13.01,2017-11-20 08:34:00,
2017-11-20 03:44:00,30.6,15.9,30.09,ESE,120,0.0,0.0,54,0.00,,CLR,0.00,VWS V13.01,2017-11-20 08:44:00,
2017-11-20 03:49:00,30.4,15.7,30.09,ESE,120,0.0,0.0,54,0.00,,CLR,0.00,VWS V13.01,2017-11-20 08:49:00,
2017-11-20 03:54:00,29.8,15.2,30.12,ESE,120,0.0,0.0,54,0.00,,CLR,0.00,VWS V13.01,2017-11-20 08:54:00,
2017-11-20 04:04:00,28.8,14.2,30.12,ESE,120,0.0,0.0,54,0.00,,CLR,0.00,VWS V13.01,2017-11-20 09:04:00,
2017-11-20 04:14:00,27.9,13.4,30.12,ESE,119,0.0,0.0,54,0.00,,CLR,0.00,VWS V13.01,2017-11-20 09:14:00,
2017-11-20 04:19:00,27.7,13.2,30.12,ESE,120,0.0,0.0,54,0.00,,CLR,0.00,VWS V13.01,2017-11-20 09:19:00,
2017-11-20 04:24:00,27.3,12.9,30.12,ESE,120,3.4,3.4,54,0.00,,CLR,0.00,VWS V13.01,2017-11-20 09:24:00,
2017-11-20 04:34:00,26.8,12.4,30.12,ESE,120,0.0,0.0,54,0.00,,CLR,0.00,VWS V13.01,2017-11-20 09:34:00,
2017-11-20 04:40:00,26.4,13.3,30.12,ESE,120,0.0,0.0,57,0.00,,CLR,0.00,VWS V13.01,2017-11-20 09:40:00,
2017-11-20 04:45:00,26.2,13.1,30.12,ESE,120,0.0,0.0,57,0.00,,CLR,0.00,VWS V13.01,2017-11-20 09:45:00,
2017-11-20 04:50:00,26.2,14.3,30.12,ESE,120,0.0,0.0,60,0.00,,CLR,0.00,VWS V13.01,2017-11-20 09:50:00,
2017-11-20 05:00:00,26.8,15.5,30.12,ESE,120,0.0,0.0,62,0.00,,CLR,0.00,VWS V13.01,2017-11-20 10:00:00,
2017-11-20 05:05:00,26.8,15.5,30.12,ESE,120,0.0,0.0,62,0.00,,CLR,0.00,VWS V13.01,2017-11-20 10:05:00,
2017-11-20 05:15:00,26.6,15.4,30.15,ESE,120,0.0,0.0,62,0.00,,CLR,0.00,VWS V13.01,2017-11-20 10:15:00,
2017-11-20 05:20:00,26.2,15.0,30.15,ESE,120,2.8,3.4,62,0.00,,CLR,0.00,VWS V13.01,2017-11-20 10:20:00,
2017-11-20 05:30:00,25.9,14.7,30.15,ESE,120,0.0,0.0,62,0.00,,CLR,0.00,VWS V13.01,2017-11-20 10:30:00,
2017-11-20 05:35:00,25.7,14.5,30.15,ESE,120,0.0,0.0,62,0.00,,CLR,0.00,VWS V13.01,2017-11-20 10:35:00,
2017-11-20 05:40:00,25.7,14.9,30.15,ESE,120,0.0,0.0,63,0.00,,CLR,0.00,VWS V13.01,2017-11-20 10:40:00,
2017-11-20 05:50:00,25.3,14.5,30.15,ESE,120,0.0,0.0,63,0.00,,CLR,0.00,VWS V13.01,2017-11-20 10:50:00,
2017-11-20 05:55:00,25.0,14.2,30.15,ESE,120,0.0,0.0,63,0.00,,CLR,0.00,VWS V13.01,2017-11-20 10:55:00,
2017-11-20 06:00:00,24.8,14.0,30.15,ESE,120,0.0,0.0,63,0.00,,CLR,0.00,VWS V13.01,2017-11-20 11:00:00,
2017-11-20 06:05:00,24.6,13.8,30.15,ESE,120,0.0,0.0,63,0.00,,CLR,0.00,VWS V13.01,2017-11-20 11:05:00,
2017-11-20 06:15:00,24.4,14.0,30.15,ESE,120,0.0,0.0,64,0.00,,CLR,0.00,VWS V13.01,2017-11-20 11:15:00,
2017-11-20 06:20:00,24.4,14.0,30.15,ESE,120,0.0,0.0,64,0.00,,CLR,0.00,VWS V13.01,2017-11-20 11:20:00,
2017-11-20 06:25:00,24.4,14.0,30.15,ESE,120,0.0,3.4,64,0.00,,CLR,0.00,VWS V13.01,2017-11-20 11:25:00,
2017-11-20 06:30:00,24.4,14.0,30.15,ESE,120,0.0,0.0,64,0.00,,CLR,0.00,VWS V13.01,2017-11-20 11:30:00,
2017-11-20 06:35:00,24.4,14.4,30.15,ESE,120,0.0,0.0,65,0.00,,CLR,0.00,VWS V13.01,2017-11-20 11:35:00,
2017-11-20 06:40:00,24.4,14.4,30.18,ESE,120,0.0,0.0,65,0.00,,CLR,0.00,VWS V13.01,2017-11-20 11:40:00,
2017-11-20 06:45:00,24.4,14.4,30.18,West,263,0.0,4.5,65,0.00,,CLR,0.00,VWS V13.01,2017-11-20 11:45:00,
2017-11-20 06:50:00,24.4,14.4,30.18,West,263,0.0,0.0,65,0.00,,CLR,0.00,VWS V13.01,2017-11-20 11:50:00,
2017-11-20 06:55:00,24.3,14.2,30.18,West,263,0.0,0.0,65,0.00,,CLR,0.00,VWS V13.01,2017-11-20 11:55:00,
2017-11-20 07:00:00,24.1,14.0,30.18,West,263,0.0,0.0,65,0.00,,CLR,0.00,VWS V13.01,2017-11-20 12:00:00,
2017-11-20 07:05:00,23.9,13.9,30.18,West,263,0.0,0.0,65,0.00,,CLR,0.00,VWS V13.01,2017-11-20 12:05:00,
2017-11-20 07:10:00,23.5,13.5,30.18,West,263,0.0,0.0,65,0.00,,CLR,0.00,VWS V13.01,2017-11-20 12:10:00,
2017-11-20 07:15:00,23.5,13.9,30.18,West,263,0.0,0.0,66,0.00,,CLR,0.00,VWS V13.01,2017-11-20 12:15:00,
2017-11-20 07:30:00,23.9,15.6,30.18,WNW,288,0.0,0.0,70,0.00,,CLR,0.00,VWS V13.01,2017-11-20 12:30:00,
2017-11-20 07:35:00,24.3,15.9,30.18,WNW,288,0.0,0.0,70,0.00,,CLR,0.00,VWS V13.01,2017-11-20 12:35:00,
2017-11-20 07:40:00,24.6,15.9,30.18,WNW,288,0.0,0.0,69,0.00,,CLR,0.00,VWS V13.01,2017-11-20 12:40:00,
2017-11-20 07:45:00,25.2,16.4,30.18,WNW,288,0.0,0.0,69,0.00,,CLR,0.00,VWS V13.01,2017-11-20 12:45:00,
2017-11-20 07:50:00,25.5,16.4,30.18,WNW,288,0.0,0.0,68,0.00,,CLR,0.00,VWS V13.01,2017-11-20 12:50:00,
2017-11-20 07:55:00,26.2,17.1,30.18,WNW,288,0.0,0.0,68,0.00,,CLR,0.00,VWS V13.01,2017-11-20 12:55:00,
2017-11-20 08:05:00,27.9,18.3,30.18,North,357,0.0,0.0,67,0.00,,CLR,0.00,VWS V13.01,2017-11-20 13:05:00,
2017-11-20 08:20:00,30.2,19.5,30.21,North,357,0.0,0.0,64,0.00,,CLR,0.00,VWS V13.01,2017-11-20 13:20:00,
2017-11-20 08:25:00,31.1,20.4,30.21,North,357,0.0,0.0,64,0.00,,CLR,0.00,VWS V13.01,2017-11-20 13:25:00,
2017-11-20 08:30:00,31.8,20.7,30.21,North,357,0.0,0.0,63,0.00,,CLR,0.00,VWS V13.01,2017-11-20 13:30:00,
2017-11-20 08:35:00,32.4,20.8,30.21,North,357,0.0,0.0,62,0.00,,CLR,0.00,VWS V13.01,2017-11-20 13:35:00,
2017-11-20 08:40:00,32.9,21.3,30.21,ESE,104,0.0,3.9,62,0.00,,CLR,0.00,VWS V13.01,2017-11-20 13:40:00,
2017-11-20 08:45:00,33.3,21.7,30.21,ESE,104,0.0,0.0,62,0.00,,CLR,0.00,VWS V13.01,2017-11-20 13:45:00,
2017-11-20 08:50:00,34.0,22.0,30.21,ESE,104,0.0,0.0,61,0.00,,CLR,0.00,VWS V13.01,2017-11-20 13:50:00,
2017-11-20 08:55:00,34.9,22.8,30.21,ESE,104,0.0,0.0,61,0.00,,CLR,0.00,VWS V13.01,2017-11-20 13:55:00,
2017-11-20 09:00:00,35.6,23.1,30.21,ESE,104,0.0,0.0,60,0.00,,CLR,0.00,VWS V13.01,2017-11-20 14:00:00,
2017-11-20 09:10:00,36.0,22.6,30.21,ENE,58,3.9,3.9,58,0.00,,CLR,0.00,VWS V13.01,2017-11-20 14:10:00,
2017-11-20 09:15:00,36.0,22.6,30.21,ESE,106,3.9,4.5,58,0.00,,CLR,0.00,VWS V13.01,2017-11-20 14:15:00,
2017-11-20 09:20:00,36.1,21.5,30.21,ESE,106,3.4,3.4,55,0.00,,CLR,0.00,VWS V13.01,2017-11-20 14:20:00,
2017-11-20 09:25:00,36.9,22.2,30.21,ESE,106,0.0,3.4,55,0.00,,CLR,0.00,VWS V13.01,2017-11-20 14:25:00,
2017-11-20 09:30:00,37.8,23.1,30.21,ESE,106,0.0,0.0,55,0.00,,CLR,0.00,VWS V13.01,2017-11-20 14:30:00,
2017-11-20 09:35:00,38.7,23.9,30.21,SE,127,0.0,0.0,55,0.00,,CLR,0.00,VWS V13.01,2017-11-20 14:35:00,
2017-11-20 09:40:00,39.9,24.6,30.21,SSE,150,0.0,0.0,54,0.00,,CLR,0.00,VWS V13.01,2017-11-20 14:40:00,
2017-11-20 09:50:00,41.2,24.9,30.21,South,182,3.9,3.9,52,0.00,,CLR,0.00,VWS V13.01,2017-11-20 14:50:00,
2017-11-20 09:55:00,41.5,25.2,30.24,South,181,0.0,3.9,52,0.00,,CLR,0.00,VWS V13.01,2017-11-20 14:55:00,
2017-11-20 10:00:00,41.9,25.6,30.24,SSE,151,0.0,3.4,52,0.00,,CLR,0.00,VWS V13.01,2017-11-20 15:00:00,
2017-11-20 10:05:00,42.3,25.9,30.24,South,172,2.8,6.2,52,0.00,,CLR,0.00,VWS V13.01,2017-11-20 15:05:00,
2017-11-20 10:10:00,42.4,26.1,30.24,South,189,4.5,5.0,52,0.00,,CLR,0.00,VWS V13.01,2017-11-20 15:10:00,
2017-11-20 10:15:00,42.6,26.2,30.24,SSW,202,3.4,5.0,52,0.00,,CLR,0.00,VWS V13.01,2017-11-20 15:15:00,
2017-11-20 10:20:00,42.8,25.9,30.24,SSW,193,2.8,5.0,51,0.00,,CLR,0.00,VWS V13.01,2017-11-20 15:20:00,
2017-11-20 10:25:00,43.2,26.3,30.24,SE,137,3.4,3.9,51,0.00,,CLR,0.00,VWS V13.01,2017-11-20 15:25:00,
2017-11-20 10:30:00,43.5,26.6,30.24,ESE,111,0.0,5.0,51,0.00,,CLR,0.00,VWS V13.01,2017-11-20 15:30:00,
2017-11-20 10:35:00,43.7,26.8,30.24,West,268,4.5,4.5,51,0.00,,CLR,0.00,VWS V13.01,2017-11-20 15:35:00,
2017-11-20 10:40:00,44.2,27.3,30.24,WSW,256,3.4,7.8,51,0.00,,CLR,0.00,VWS V13.01,2017-11-20 15:40:00,
2017-11-20 10:45:00,44.6,27.6,30.24,West,262,0.0,3.4,51,0.00,,CLR,0.00,VWS V13.01,2017-11-20 15:45:00,
2017-11-20 10:50:00,45.1,28.1,30.24,WNW,283,0.0,5.0,51,0.00,,CLR,0.00,VWS V13.01,2017-11-20 15:50:00,
2017-11-20 10:55:00,45.3,28.3,30.24,SSE,159,3.4,5.0,51,0.00,,CLR,0.00,VWS V13.01,2017-11-20 15:55:00,
2017-11-20 11:00:00,45.5,28.4,30.24,SE,127,3.4,4.5,51,0.00,,CLR,0.00,VWS V13.01,2017-11-20 16:00:00,
2017-11-20 11:05:00,45.9,28.8,30.24,WNW,288,3.4,3.4,51,0.00,,CLR,0.00,VWS V13.01,2017-11-20 16:05:00,
2017-11-20 11:10:00,46.2,29.1,30.24,WSW,249,0.0,3.9,51,0.00,,CLR,0.00,VWS V13.01,2017-11-20 16:10:00,
2017-11-20 11:15:00,46.4,28.8,30.24,West,261,6.2,6.2,50,0.00,,CLR,0.00,VWS V13.01,2017-11-20 16:15:00,
2017-11-20 11:20:00,46.4,28.8,30.24,SW,216,3.4,5.0,50,0.00,,CLR,0.00,VWS V13.01,2017-11-20 16:20:00,
2017-11-20 11:35:00,46.6,29.0,30.24,WSW,255,2.8,7.8,50,0.00,,CLR,0.00,VWS V13.01,2017-11-20 16:35:00,
2017-11-20 11:40:00,46.8,29.1,30.24,WNW,290,4.5,7.3,50,0.00,,CLR,0.00,VWS V13.01,2017-11-20 16:40:00,
2017-11-20 11:45:00,47.1,29.5,30.24,West,263,4.5,6.7,50,0.00,,CLR,0.00,VWS V13.01,2017-11-20 16:45:00,
2017-11-20 11:50:00,47.3,29.6,30.24,WNW,296,3.9,3.9,50,0.00,,CLR,0.00,VWS V13.01,2017-11-20 16:50:00,
2017-11-20 11:55:00,47.3,29.6,30.24,West,260,3.4,4.5,50,0.00,,CLR,0.00,VWS V13.01,2017-11-20 16:55:00,
2017-11-20 12:00:00,47.7,30.0,30.24,WNW,291,6.2,6.7,50,0.00,,CLR,0.00,VWS V13.01,2017-11-20 17:00:00,
2017-11-20 12:05:00,47.8,30.1,30.24,WSW,241,3.9,6.2,50,0.00,,CLR,0.00,VWS V13.01,2017-11-20 17:05:00,
2017-11-20 12:10:00,47.7,30.0,30.24,West,268,3.4,5.0,50,0.00,,CLR,0.00,VWS V13.01,2017-11-20 17:10:00,
2017-11-20 12:20:00,47.8,30.1,30.24,SSW,208,7.3,7.8,50,0.00,,CLR,0.00,VWS V13.01,2017-11-20 17:20:00,
2017-11-20 12:25:00,47.7,30.0,30.24,SSW,197,0.0,9.5,50,0.00,,CLR,0.00,VWS V13.01,2017-11-20 17:25:00,
2017-11-20 12:30:00,47.7,30.0,30.24,SSE,156,2.8,3.4,50,0.00,,CLR,0.00,VWS V13.01,2017-11-20 17:30:00,
2017-11-20 12:35:00,47.8,30.1,30.24,SSW,200,4.5,7.8,50,0.00,,CLR,0.00,VWS V13.01,2017-11-20 17:35:00,
2017-11-20 12:40:00,48.0,30.3,30.24,SSE,165,8.4,8.4,50,0.00,,CLR,0.00,VWS V13.01,2017-11-20 17:40:00,
2017-11-20 12:45:00,47.8,30.1,30.24,West,268,5.0,6.2,50,0.00,,CLR,0.00,VWS V13.01,2017-11-20 17:45:00,
2017-11-20 12:55:00,47.7,30.0,30.21,SW,227,0.0,10.3,50,0.00,,CLR,0.00,VWS V13.01,2017-11-20 17:55:00,
2017-11-20 13:05:00,47.5,29.8,30.21,SSE,165,5.6,7.8,50,0.00,,CLR,0.00,VWS V13.01,2017-11-20 18:05:00,
2017-11-20 13:10:00,47.8,30.1,30.21,West,265,0.0,4.5,50,0.00,,CLR,0.00,VWS V13.01,2017-11-20 18:10:00,
2017-11-20 13:15:00,48.2,30.5,30.21,WNW,291,3.9,4.5,50,0.00,,CLR,0.00,VWS V13.01,2017-11-20 18:15:00,
2017-11-20 13:30:00,48.0,30.3,30.21,East,86,5.0,6.7,50,0.00,,CLR,0.00,VWS V13.01,2017-11-20 18:30:00,
2017-11-20 13:35:00,47.8,30.1,30.21,East,97,5.0,5.0,50,0.00,,CLR,0.00,VWS V13.01,2017-11-20 18:35:00,
2017-11-20 13:45:00,48.0,30.3,30.21,South,176,7.8,7.8,50,0.00,,CLR,0.00,VWS V13.01,2017-11-20 18:45:00,
2017-11-20 13:50:00,48.4,30.6,30.21,WNW,293,3.4,6.7,50,0.00,,CLR,0.00,VWS V13.01,2017-11-20 18:50:00,
2017-11-20 13:55:00,48.6,30.8,30.21,South,169,4.5,7.3,50,0.00,,CLR,0.00,VWS V13.01,2017-11-20 18:55:00,
2017-11-20 14:00:00,48.7,31.0,30.21,WSW,254,4.5,6.7,50,0.00,,CLR,0.00,VWS V13.01,2017-11-20 19:00:00,
2017-11-20 14:05:00,48.9,31.1,30.21,NW,314,3.4,4.5,50,0.00,,CLR,0.00,VWS V13.01,2017-11-20 19:05:00,
2017-11-20 14:10:00,48.7,31.0,30.21,SSE,168,3.4,7.8,50,0.00,,CLR,0.00,VWS V13.01,2017-11-20 19:10:00,
2017-11-20 14:15:00,48.6,30.8,30.21,ESE,117,10.9,10.9,50,0.00,,CLR,0.00,VWS V13.01,2017-11-20 19:15:00,
2017-11-20 14:20:00,48.6,30.8,30.21,NW,305,0.0,7.8,50,0.00,,CLR,0.00,VWS V13.01,2017-11-20 19:20:00,
2017-11-20 14:25:00,48.6,30.8,30.18,South,176,3.9,6.2,50,0.00,,CLR,0.00,VWS V13.01,2017-11-20 19:25:00,
2017-11-20 14:30:00,48.6,30.8,30.18,South,180,0.0,6.7,50,0.00,,CLR,0.00,VWS V13.01,2017-11-20 19:30:00,
2017-11-20 14:35:00,48.7,31.0,30.18,ESE,113,6.2,6.2,50,0.00,,CLR,0.00,VWS V13.01,2017-11-20 19:35:00,
2017-11-20 14:45:00,48.7,31.0,30.18,West,262,0.0,6.2,50,0.00,,CLR,0.00,VWS V13.01,2017-11-20 19:45:00,
2017-11-20 15:05:00,48.7,31.0,30.18,East,96,6.2,7.3,50,0.00,,CLR,0.00,VWS V13.01,2017-11-20 20:05:00,
2017-11-20 15:15:00,48.6,30.8,30.18,ESE,107,7.3,9.5,50,0.00,,CLR,0.00,VWS V13.01,2017-11-20 20:15:00,
2017-11-20 15:20:00,48.4,30.6,30.18,SSW,197,7.3,7.8,50,0.00,,CLR,0.00,VWS V13.01,2017-11-20 20:20:00,
2017-11-20 15:25:00,48.4,30.6,30.18,South,180,3.9,6.7,50,0.00,,CLR,0.00,VWS V13.01,2017-11-20 20:25:00,
2017-11-20 15:30:00,48.2,30.5,30.18,North,7,2.8,3.9,50,0.00,,CLR,0.00,VWS V13.01,2017-11-20 20:30:00,
2017-11-20 15:35:00,48.2,30.5,30.18,West,261,2.8,3.9,50,0.00,,CLR,0.00,VWS V13.01,2017-11-20 20:35:00,
2017-11-20 15:40:00,48.0,30.3,30.18,South,170,6.2,9.5,50,0.00,,CLR,0.00,VWS V13.01,2017-11-20 20:40:00,
2017-11-20 15:57:00,47.3,29.6,30.21,SSE,166,3.9,10.3,50,0.00,,CLR,0.00,VWS V13.01,2017-11-20 20:57:00,
2017-11-20 16:08:00,46.9,29.3,30.21,NW,312,0.0,7.3,50,0.00,,CLR,0.00,VWS V13.01,2017-11-20 21:08:00,
2017-11-20 16:17:00,46.8,29.1,30.21,NW,306,4.5,9.5,50,0.00,,CLR,0.00,VWS V13.01,2017-11-20 21:17:00,
2017-11-20 16:27:00,46.6,29.0,30.21,NW,309,0.0,4.5,50,0.00,,CLR,0.00,VWS V13.01,2017-11-20 21:27:00,
2017-11-20 16:32:00,46.4,28.8,30.21,WSW,248,4.5,10.3,50,0.00,,CLR,0.00,VWS V13.01,2017-11-20 21:32:00,
2017-11-20 16:37:00,46.0,28.9,30.21,SSE,161,0.0,6.7,51,0.00,,CLR,0.00,VWS V13.01,2017-11-20 21:37:00,
2017-11-20 16:42:00,45.7,28.6,30.21,SSE,155,2.8,3.9,51,0.00,,CLR,0.00,VWS V13.01,2017-11-20 21:42:00,
2017-11-20 16:52:00,45.0,27.9,30.21,SSE,164,0.0,3.9,51,0.00,,CLR,0.00,VWS V13.01,2017-11-20 21:52:00,
2017-11-20 17:02:00,44.2,27.3,30.21,SSE,151,0.0,0.0,51,0.00,,CLR,0.00,VWS V13.01,2017-11-20 22:02:00,
2017-11-20 17:12:00,43.7,26.8,30.21,South,176,0.0,3.4,51,0.00,,CLR,0.00,VWS V13.01,2017-11-20 22:12:00,
2017-11-20 17:17:00,43.5,26.6,30.21,SE,138,0.0,3.9,51,0.00,,CLR,0.00,VWS V13.01,2017-11-20 22:17:00,
2017-11-20 17:37:00,42.4,26.1,30.21,SE,127,0.0,0.0,52,0.00,,CLR,0.00,VWS V13.01,2017-11-20 22:37:00,
2017-11-20 17:42:00,42.4,26.1,30.21,South,181,0.0,2.8,52,0.00,,CLR,0.00,VWS V13.01,2017-11-20 22:42:00,
2017-11-20 17:47:00,42.3,25.9,30.21,South,181,0.0,0.0,52,0.00,,CLR,0.00,VWS V13.01,2017-11-20 22:47:00,
2017-11-20 17:52:00,42.3,25.9,30.21,SW,222,0.0,0.0,52,0.00,,CLR,0.00,VWS V13.01,2017-11-20 22:52:00,
2017-11-20 17:57:00,42.1,25.7,30.21,SSE,163,0.0,2.8,52,0.00,,CLR,0.00,VWS V13.01,2017-11-20 22:57:00,
2017-11-20 18:02:00,41.9,25.6,30.21,SSE,163,0.0,0.0,52,0.00,,CLR,0.00,VWS V13.01,2017-11-20 23:02:00,
2017-11-20 18:07:00,41.5,25.2,30.21,SSE,163,0.0,0.0,52,0.00,,CLR,0.00,VWS V13.01,2017-11-20 23:07:00,
2017-11-20 18:14:00,41.4,25.1,30.21,South,172,0.0,2.8,52,0.00,,CLR,0.00,VWS V13.01,2017-11-20 23:14:00,
2017-11-20 18:19:00,41.4,25.1,30.21,South,172,0.0,0.0,52,0.00,,CLR,0.00,VWS V13.01,2017-11-20 23:19:00,
2017-11-20 18:24:00,41.2,24.9,30.21,South,172,0.0,0.0,52,0.00,,CLR,0.00,VWS V13.01,2017-11-20 23:24:00,
2017-11-20 18:29:00,41.0,24.7,30.21,South,172,0.0,0.0,52,0.00,,CLR,0.00,VWS V13.01,2017-11-20 23:29:00,
2017-11-20 18:34:00,40.6,24.4,30.21,South,172,0.0,0.0,52,0.00,,CLR,0.00,VWS V13.01,2017-11-20 23:34:00,
2017-11-20 18:39:00,40.3,24.1,30.21,South,172,0.0,0.0,52,0.00,,CLR,0.00,VWS V13.01,2017-11-20 23:39:00,
2017-11-20 18:44:00,40.1,23.9,30.21,South,172,0.0,0.0,52,0.00,,CLR,0.00,VWS V13.01,2017-11-20 23:44:00,
2017-11-20 18:49:00,39.9,23.7,30.21,South,170,0.0,0.0,52,0.00,,CLR,0.00,VWS V13.01,2017-11-20 23:49:00,
2017-11-20 18:54:00,39.9,23.7,30.21,South,170,0.0,0.0,52,0.00,,CLR,0.00,VWS V13.01,2017-11-20 23:54:00,
2017-11-20 18:59:00,40.1,23.9,30.21,SSW,207,0.0,0.0,52,0.00,,CLR,0.00,VWS V13.01,2017-11-20 23:59:00,
2017-11-20 19:09:00,40.3,24.1,30.21,SSW,195,0.0,0.0,52,0.00,,CLR,0.00,VWS V13.01,2017-11-21 00:09:00,
2017-11-20 19:14:00,40.5,24.2,30.21,SSW,195,0.0,0.0,52,0.00,,CLR,0.00,VWS V13.01,2017-11-21 00:14:00,
2017-11-20 19:21:00,40.3,24.1,30.21,SSW,195,0.0,0.0,52,0.00,,CLR,0.00,VWS V13.01,2017-11-21 00:21:00,
2017-11-20 19:29:00,40.3,24.1,30.21,SSW,195,0.0,0.0,52,0.00,,CLR,0.00,VWS V13.01,2017-11-21 00:29:00,
2017-11-20 19:30:00,40.1,23.9,30.21,SSW,195,0.0,0.0,52,0.00,,CLR,0.00,VWS V13.01,2017-11-21 00:30:00,
2017-11-20 19:40:00,40.3,24.1,30.21,SSW,195,0.0,0.0,52,0.00,,CLR,0.00,VWS V13.01,2017-11-21 00:40:00,
2017-11-20 19:45:00,40.3,24.1,30.21,SSW,195,0.0,0.0,52,0.00,,CLR,0.00,VWS V13.01,2017-11-21 00:45:00,
2017-11-20 19:55:00,39.4,23.2,30.21,SSW,195,0.0,0.0,52,0.00,,CLR,0.00,VWS V13.01,2017-11-21 00:55:00,
2017-11-20 20:00:00,38.7,22.6,30.21,SSW,195,0.0,0.0,52,0.00,,CLR,0.00,VWS V13.01,2017-11-21 01:00:00,
2017-11-20 20:05:00,37.9,21.9,30.21,SSW,195,0.0,0.0,52,0.00,,CLR,0.00,VWS V13.01,2017-11-21 01:05:00,
2017-11-20 20:10:00,37.4,21.4,30.21,SSW,195,0.0,0.0,52,0.00,,CLR,0.00,VWS V13.01,2017-11-21 01:10:00,
2017-11-20 20:15:00,36.9,21.3,30.21,SSW,195,0.0,0.0,53,0.00,,CLR,0.00,VWS V13.01,2017-11-21 01:15:00,
2017-11-20 20:20:00,36.3,20.8,30.21,SSW,195,0.0,0.0,53,0.00,,CLR,0.00,VWS V13.01,2017-11-21 01:20:00,